Time;durP1;ratioP1;P1;durP2;ratioP2;P2;SDS_P1;SDS_P2;PMS_P1;PMS_P2;Temp;Humidity;BMP_temperature;BMP_pressure;BME280_temperature;BME280_humidity;BME280_pressure;Samples;Min_cycle;Max_cycle;Signal;HPM_P1;HPM_P2
2023/07/19 00:01:05;;;;;;;6.53;2.83;;;15.50;92.60;;;;;;5014049;28;20029;-81
2023/07/19 00:03:31;;;;;;;5.07;2.88;;;15.50;92.50;;;;;;5015293;28;20105;-82
2023/07/19 00:05:59;;;;;;;7.43;2.80;;;15.50;92.50;;;;;;5016068;28;20022;-82
2023/07/19 00:08:24;;;;;;;5.53;2.92;;;15.50;92.50;;;;;;5010715;28;20025;-82
2023/07/19 00:10:50;;;;;;;5.45;2.65;;;15.40;92.80;;;;;;5015404;28;20087;-81
2023/07/19 00:13:15;;;;;;;3.45;2.35;;;15.40;92.50;;;;;;5012554;28;20504;-80
2023/07/19 00:15:41;;;;;;;7.00;2.35;;;15.40;92.70;;;;;;5009488;28;20041;-81
2023/07/19 00:18:07;;;;;;;4.55;2.45;;;15.40;93.00;;;;;;5010138;28;20485;-80
2023/07/19 00:20:32;;;;;;;5.72;2.78;;;15.30;92.80;;;;;;5012433;28;20022;-81
2023/07/19 00:22:58;;;;;;;5.40;2.67;;;15.30;93.30;;;;;;5006602;28;20044;-82
2023/07/19 00:25:23;;;;;;;5.35;2.88;;;15.30;93.00;;;;;;5009967;28;20022;-81
2023/07/19 00:27:49;;;;;;;5.30;3.00;;;15.20;92.90;;;;;;5019492;28;20034;-80
2023/07/19 00:30:14;;;;;;;6.38;2.75;;;15.20;92.90;;;;;;5012015;28;20034;-81
2023/07/19 00:32:41;;;;;;;7.20;2.70;;;15.20;93.20;;;;;;5008314;28;20136;-81
2023/07/19 00:35:07;;;;;;;7.75;2.75;;;15.10;93.70;;;;;;5009332;28;20560;-83
2023/07/19 00:37:33;;;;;;;6.43;2.85;;;15.10;93.30;;;;;;5019316;28;20026;-80
2023/07/19 00:39:58;;;;;;;5.35;2.55;;;15.10;93.30;;;;;;5016023;28;20032;-81
2023/07/19 00:42:25;;;;;;;7.40;2.88;;;15.10;93.20;;;;;;5011419;28;20045;-89
2023/07/19 00:44:51;;;;;;;7.78;2.72;;;15.10;93.50;;;;;;4991483;28;20034;-85
2023/07/19 00:47:17;;;;;;;4.95;2.50;;;15.00;93.30;;;;;;5010479;28;20095;-85
2023/07/19 00:49:44;;;;;;;6.40;2.75;;;15.00;93.40;;;;;;5014488;28;20447;-86
2023/07/19 00:52:09;;;;;;;7.60;2.60;;;15.00;93.30;;;;;;5010302;28;20573;-86
2023/07/19 00:54:36;;;;;;;9.05;2.72;;;15.00;93.90;;;;;;5011636;28;20106;-86
2023/07/19 00:57:03;;;;;;;9.43;2.75;;;15.00;93.70;;;;;;5009736;28;20046;-86
2023/07/19 00:59:29;;;;;;;5.85;2.65;;;15.00;93.40;;;;;;5010995;28;20041;-84
2023/07/19 01:01:55;;;;;;;4.38;2.38;;;15.00;93.30;;;;;;5011281;28;20474;-83
2023/07/19 01:04:24;;;;;;;4.45;2.10;;;15.00;93.10;;;;;;5011701;28;20037;-84
2023/07/19 01:06:50;;;;;;;6.35;2.70;;;15.00;93.50;;;;;;5009184;28;20151;-84
2023/07/19 01:09:15;;;;;;;7.60;2.70;;;15.00;93.70;;;;;;5010611;28;20489;-84
2023/07/19 01:11:41;;;;;;;5.13;2.45;;;15.00;93.60;;;;;;5017485;28;20045;-83
2023/07/19 01:14:07;;;;;;;5.32;2.78;;;15.00;93.50;;;;;;5001692;28;20729;-84
2023/07/19 01:16:33;;;;;;;7.00;2.47;;;15.00;93.60;;;;;;5006248;28;20501;-83
2023/07/19 01:18:59;;;;;;;5.32;2.75;;;15.00;93.80;;;;;;5010854;28;20034;-83
2023/07/19 01:21:24;;;;;;;5.35;2.60;;;15.00;93.90;;;;;;5006430;28;20022;-83
2023/07/19 01:23:50;;;;;;;7.30;2.95;;;15.10;94.00;;;;;;5009774;28;20030;-83
2023/07/19 01:26:16;;;;;;;6.82;2.65;;;15.00;93.60;;;;;;5003189;28;20072;-84
2023/07/19 01:28:41;;;;;;;7.95;3.85;;;15.00;93.50;;;;;;5004567;28;20041;-83
2023/07/19 01:31:09;;;;;;;7.60;3.22;;;15.00;93.40;;;;;;5005304;28;20393;-84
2023/07/19 01:33:35;;;;;;;5.25;2.95;;;15.00;93.40;;;;;;5012242;28;20022;-83
2023/07/19 01:36:01;;;;;;;7.43;3.08;;;15.00;93.40;;;;;;5005862;28;20025;-84
2023/07/19 01:38:26;;;;;;;5.78;3.10;;;15.00;93.20;;;;;;5004596;28;20037;-83
2023/07/19 01:40:51;;;;;;;6.65;2.88;;;15.00;93.10;;;;;;5009293;28;20043;-83
2023/07/19 01:43:17;;;;;;;6.45;2.90;;;15.00;93.00;;;;;;5008188;28;20485;-83
2023/07/19 01:45:43;;;;;;;9.05;3.25;;;15.00;92.90;;;;;;5003722;28;20037;-83
2023/07/19 01:48:08;;;;;;;6.18;3.20;;;15.00;93.20;;;;;;5010343;28;20030;-83
2023/07/19 01:50:34;;;;;;;6.10;2.90;;;15.00;92.80;;;;;;4999276;28;20030;-83
2023/07/19 01:52:59;;;;;;;7.70;2.95;;;15.00;93.00;;;;;;4998985;28;20022;-84
2023/07/19 01:55:25;;;;;;;11.15;3.50;;;15.00;92.90;;;;;;5003159;28;20061;-84
2023/07/19 01:57:50;;;;;;;5.80;2.92;;;15.10;92.60;;;;;;5011127;28;20061;-84
2023/07/19 02:00:16;;;;;;;6.90;3.13;;;15.10;92.80;;;;;;5010933;28;20034;-83
2023/07/19 02:02:42;;;;;;;6.40;3.08;;;15.10;92.70;;;;;;5023829;28;20029;-84
2023/07/19 02:05:08;;;;;;;6.50;3.30;;;15.10;92.50;;;;;;5008687;28;20504;-86
2023/07/19 02:07:33;;;;;;;5.05;2.85;;;15.10;92.40;;;;;;5009749;28;20061;-85
2023/07/19 02:09:59;;;;;;;6.07;3.30;;;15.10;92.70;;;;;;5012680;28;20493;-86
2023/07/19 02:12:24;;;;;;;7.22;3.10;;;15.20;92.80;;;;;;5008755;28;20033;-86
2023/07/19 02:14:50;;;;;;;5.45;2.92;;;15.10;92.90;;;;;;5015582;28;20033;-87
2023/07/19 02:17:15;;;;;;;6.35;3.47;;;15.10;93.20;;;;;;5015012;28;20125;-86
2023/07/19 02:19:41;;;;;;;5.65;3.35;;;15.10;93.40;;;;;;5012176;28;20069;-85
2023/07/19 02:22:06;;;;;;;6.95;3.70;;;15.10;93.60;;;;;;5010716;28;20026;-86
2023/07/19 02:24:32;;;;;;;5.00;3.38;;;15.00;93.60;;;;;;5012327;28;20026;-86
2023/07/19 02:26:57;;;;;;;6.28;3.38;;;15.00;93.70;;;;;;5010878;28;20030;-85
2023/07/19 02:29:23;;;;;;;7.13;3.67;;;15.00;93.40;;;;;;5019220;28;20074;-85
2023/07/19 02:31:52;;;;;;;7.93;3.78;;;15.00;93.50;;;;;;5013632;28;20469;-86
2023/07/19 02:34:18;;;;;;;8.75;3.30;;;15.00;93.80;;;;;;5011057;28;20040;-85
2023/07/19 02:36:45;;;;;;;7.95;3.40;;;14.90;93.60;;;;;;5012333;28;20472;-86
2023/07/19 02:39:10;;;;;;;10.35;4.50;;;14.90;93.70;;;;;;5015055;28;20351;-86
2023/07/19 02:41:36;;;;;;;5.57;3.80;;;14.90;93.60;;;;;;5018172;28;20116;-86
2023/07/19 02:44:01;;;;;;;7.90;4.15;;;14.80;93.60;;;;;;5013648;28;20022;-85
2023/07/19 02:46:28;;;;;;;8.07;3.55;;;14.80;93.80;;;;;;5016438;28;20026;-85
2023/07/19 02:48:54;;;;;;;8.90;3.95;;;14.80;93.80;;;;;;5018842;28;20018;-84
2023/07/19 02:51:19;;;;;;;7.40;3.65;;;14.80;93.90;;;;;;5012474;28;20432;-86
2023/07/19 02:53:45;;;;;;;7.07;3.65;;;14.80;93.80;;;;;;5015670;28;20048;-85
2023/07/19 02:56:10;;;;;;;7.53;3.65;;;14.80;93.70;;;;;;5019922;28;20025;-86
2023/07/19 02:58:36;;;;;;;7.10;3.97;;;14.70;94.00;;;;;;5012626;28;20062;-85
2023/07/19 03:01:01;;;;;;;7.15;3.80;;;14.80;94.00;;;;;;5009497;28;20109;-85
2023/07/19 03:03:26;;;;;;;9.75;4.43;;;14.80;94.10;;;;;;5016181;28;20052;-86
2023/07/19 03:05:52;;;;;;;7.60;4.30;;;14.70;94.10;;;;;;5014711;28;20447;-85
2023/07/19 03:08:17;;;;;;;8.88;4.22;;;14.70;94.10;;;;;;5016330;28;20033;-86
2023/07/19 03:10:43;;;;;;;7.90;3.88;;;14.70;93.90;;;;;;5020765;28;20037;-85
2023/07/19 03:13:09;;;;;;;6.80;4.18;;;14.80;94.10;;;;;;5016238;28;20489;-86
2023/07/19 03:15:35;;;;;;;9.50;4.30;;;14.70;93.90;;;;;;5006668;28;20045;-86
2023/07/19 03:18:01;;;;;;;7.63;3.92;;;14.60;94.00;;;;;;5008652;28;20030;-84
2023/07/19 03:20:27;;;;;;;6.80;4.30;;;14.70;94.00;;;;;;5011673;28;20044;-86
2023/07/19 03:22:54;;;;;;;7.18;4.32;;;14.60;94.10;;;;;;5026975;28;20026;-85
2023/07/19 03:25:19;;;;;;;9.70;4.07;;;14.60;94.20;;;;;;5014932;28;20065;-86
2023/07/19 03:27:45;;;;;;;9.65;4.10;;;14.60;94.10;;;;;;5010728;28;20064;-86
2023/07/19 03:30:11;;;;;;;8.45;3.83;;;14.60;94.10;;;;;;5019063;28;20542;-87
2023/07/19 03:32:37;;;;;;;8.02;4.32;;;14.70;93.70;;;;;;5011814;28;20026;-86
2023/07/19 03:35:03;;;;;;;8.07;3.60;;;14.60;93.60;;;;;;5002289;28;20045;-86
2023/07/19 03:37:28;;;;;;;7.28;3.78;;;14.60;93.50;;;;;;5010905;28;20026;-86
2023/07/19 03:39:54;;;;;;;9.77;3.42;;;14.70;93.50;;;;;;5023264;28;20053;-87
2023/07/19 03:42:20;;;;;;;10.48;4.03;;;14.70;93.30;;;;;;5010998;28;20018;-86
2023/07/19 03:44:46;;;;;;;5.97;3.67;;;14.70;93.50;;;;;;5004217;28;20500;-86
2023/07/19 03:47:11;;;;;;;8.07;3.50;;;14.70;93.80;;;;;;5010719;28;20029;-86
2023/07/19 03:49:37;;;;;;;9.82;3.90;;;14.70;93.60;;;;;;5011818;28;20033;-86
2023/07/19 03:52:03;;;;;;;9.00;4.10;;;14.70;93.60;;;;;;5006019;28;20034;-86
2023/07/19 03:54:28;;;;;;;6.35;3.17;;;14.70;93.60;;;;;;5010305;28;22250;-86
2023/07/19 03:56:54;;;;;;;6.15;3.88;;;14.70;93.60;;;;;;5008602;28;20027;-87
2023/07/19 03:59:19;;;;;;;4.30;2.67;;;14.70;93.70;;;;;;5015614;28;20076;-86
2023/07/19 04:01:45;;;;;;;6.82;3.90;;;14.70;93.40;;;;;;5010024;28;20026;-86
2023/07/19 04:04:10;;;;;;;6.55;3.05;;;14.80;93.30;;;;;;5013798;28;20034;-87
2023/07/19 04:06:36;;;;;;;5.03;2.70;;;14.80;93.00;;;;;;5017042;28;20030;-86
2023/07/19 04:09:01;;;;;;;7.65;3.05;;;14.80;93.10;;;;;;5012198;28;20030;-86
2023/07/19 04:11:28;;;;;;;5.00;2.85;;;14.90;93.40;;;;;;5004625;28;20521;-86
2023/07/19 04:13:54;;;;;;;5.57;2.92;;;14.90;93.10;;;;;;5010421;28;20072;-87
2023/07/19 04:16:19;;;;;;;4.47;2.50;;;14.90;93.10;;;;;;5023627;28;20053;-86
2023/07/19 04:18:44;;;;;;;5.65;2.95;;;15.00;93.20;;;;;;5011425;28;20086;-86
2023/07/19 04:21:10;;;;;;;6.43;2.70;;;15.00;92.90;;;;;;5007895;28;20071;-86
2023/07/19 04:23:35;;;;;;;4.03;2.40;;;15.00;92.70;;;;;;5009818;28;20401;-86
2023/07/19 04:26:01;;;;;;;4.75;2.45;;;15.00;92.70;;;;;;5013707;28;20045;-86
2023/07/19 04:28:26;;;;;;;6.10;2.53;;;14.90;92.60;;;;;;5015707;28;20028;-85
2023/07/19 04:30:52;;;;;;;8.55;2.70;;;14.90;92.30;;;;;;5008832;28;20125;-85
2023/07/19 04:33:19;;;;;;;7.70;2.45;;;14.90;92.00;;;;;;5011816;28;20037;-86
2023/07/19 04:35:44;;;;;;;7.68;3.00;;;15.00;92.10;;;;;;5010883;28;20037;-85
2023/07/19 04:38:10;;;;;;;7.85;2.78;;;15.00;91.90;;;;;;5011002;28;20033;-84
2023/07/19 04:40:35;;;;;;;5.95;2.22;;;15.00;91.70;;;;;;5018269;28;20121;-84
2023/07/19 04:43:01;;;;;;;5.97;2.72;;;15.00;91.70;;;;;;5010611;28;20401;-84
2023/07/19 04:45:27;;;;;;;5.13;2.47;;;15.00;91.50;;;;;;5006154;28;20029;-86
2023/07/19 04:47:52;;;;;;;6.47;3.03;;;15.00;91.40;;;;;;5016160;28;20041;-85
2023/07/19 04:50:18;;;;;;;4.47;2.30;;;15.00;91.30;;;;;;5018893;28;20058;-85
2023/07/19 04:52:45;;;;;;;6.75;2.53;;;15.00;91.20;;;;;;5014407;28;20022;-85
2023/07/19 04:55:11;;;;;;;6.15;2.70;;;15.00;91.20;;;;;;5008029;28;20473;-85
2023/07/19 04:57:37;;;;;;;5.60;2.55;;;15.00;91.80;;;;;;5006744;28;20041;-84
2023/07/19 05:00:05;;;;;;;4.60;2.53;;;15.00;91.70;;;;;;5025272;28;20037;-85
2023/07/19 05:02:30;;;;;;;5.95;2.67;;;15.00;91.90;;;;;;5004045;28;20088;-86
2023/07/19 05:04:56;;;;;;;5.85;2.92;;;15.00;92.40;;;;;;5015990;28;20473;-85
2023/07/19 05:07:21;;;;;;;6.30;3.10;;;15.00;92.30;;;;;;5009382;28;20437;-86
2023/07/19 05:09:47;;;;;;;8.05;2.58;;;15.00;92.00;;;;;;5006198;28;20038;-85
2023/07/19 05:12:12;;;;;;;7.60;3.15;;;15.00;92.30;;;;;;5014471;28;20037;-84
2023/07/19 05:14:38;;;;;;;6.63;2.70;;;15.00;92.20;;;;;;5018079;28;20389;-84
2023/07/19 05:17:04;;;;;;;6.20;2.50;;;15.00;92.10;;;;;;5010820;28;20053;-86
2023/07/19 05:19:29;;;;;;;6.95;2.95;;;15.00;92.60;;;;;;5006336;28;20034;-86
2023/07/19 05:21:56;;;;;;;7.07;2.90;;;15.00;92.70;;;;;;5008261;28;20034;-85
2023/07/19 05:24:21;;;;;;;6.10;2.90;;;15.00;93.40;;;;;;5006084;28;20031;-85
2023/07/19 05:26:47;;;;;;;12.85;3.25;;;15.00;93.90;;;;;;5011328;28;20147;-84
2023/07/19 05:29:12;;;;;;;6.60;3.00;;;15.00;94.30;;;;;;5010355;28;20018;-84
2023/07/19 05:31:38;;;;;;;7.88;3.17;;;15.00;94.70;;;;;;5006007;28;20420;-84
2023/07/19 05:34:03;;;;;;;5.03;2.78;;;15.00;95.10;;;;;;5014737;28;20054;-84
2023/07/19 05:36:29;;;;;;;6.90;3.35;;;15.00;95.30;;;;;;5007889;28;20387;-86
2023/07/19 05:38:55;;;;;;;6.72;3.50;;;15.00;95.20;;;;;;5006319;28;20022;-84
2023/07/19 05:41:20;;;;;;;8.63;3.45;;;15.10;95.40;;;;;;5014710;28;20026;-83
2023/07/19 05:43:46;;;;;;;10.68;3.63;;;15.10;95.30;;;;;;5008586;28;20045;-83
2023/07/19 05:46:11;;;;;;;7.45;3.10;;;15.20;95.30;;;;;;5008830;28;20466;-85
2023/07/19 05:48:37;;;;;;;6.75;3.70;;;15.20;95.00;;;;;;5010022;28;20030;-85
2023/07/19 05:51:04;;;;;;;8.88;3.97;;;15.30;95.00;;;;;;5009204;28;20022;-84
2023/07/19 05:53:30;;;;;;;9.15;3.42;;;15.40;94.90;;;;;;5005652;28;20485;-85
2023/07/19 05:55:56;;;;;;;11.57;3.70;;;15.50;94.90;;;;;;5011364;28;20116;-85
2023/07/19 05:58:22;;;;;;;5.32;2.92;;;15.40;94.70;;;;;;5010131;28;20073;-86
2023/07/19 06:00:47;;;;;;;10.05;3.40;;;15.30;94.40;;;;;;5007360;28;20499;-84
2023/07/19 06:03:16;;;;;;;6.07;3.15;;;15.10;94.40;;;;;;5007359;28;20028;-85
2023/07/19 06:05:44;;;;;;;9.15;3.25;;;15.20;94.30;;;;;;5005290;28;20025;-83
2023/07/19 06:08:11;;;;;;;6.28;2.88;;;15.20;94.40;;;;;;5008341;28;20080;-83
2023/07/19 06:10:37;;;;;;;8.00;3.38;;;15.50;94.60;;;;;;5006064;28;20108;-83
2023/07/19 06:13:03;;;;;;;5.40;2.80;;;15.60;94.50;;;;;;5009083;28;20036;-85
2023/07/19 06:15:30;;;;;;;7.15;2.75;;;15.60;93.40;;;;;;5011425;28;20029;-84
2023/07/19 06:17:55;;;;;;;6.93;2.30;;;15.70;93.50;;;;;;5012572;28;20036;-83
2023/07/19 06:20:21;;;;;;;9.50;2.83;;;15.70;92.80;;;;;;5009260;28;20037;-84
2023/07/19 06:22:46;;;;;;;4.80;2.53;;;15.60;92.80;;;;;;5009303;28;20440;-83
2023/07/19 06:25:12;;;;;;;6.00;2.63;;;15.60;93.00;;;;;;5012472;28;20053;-86
2023/07/19 06:27:37;;;;;;;4.22;2.50;;;15.30;92.60;;;;;;5015499;28;20030;-85
2023/07/19 06:30:03;;;;;;;10.95;3.63;;;15.10;92.60;;;;;;5013272;28;20044;-84
2023/07/19 06:32:29;;;;;;;8.65;2.80;;;15.20;93.40;;;;;;5006606;28;20044;-84
2023/07/19 06:34:54;;;;;;;5.60;2.22;;;15.30;93.70;;;;;;5016697;28;20140;-85
2023/07/19 06:37:20;;;;;;;9.27;2.70;;;15.30;93.50;;;;;;5008441;28;20033;-83
2023/07/19 06:39:46;;;;;;;8.57;2.70;;;15.00;92.50;;;;;;5004921;28;20038;-82
2023/07/19 06:42:12;;;;;;;7.07;2.20;;;15.00;92.80;;;;;;5013720;28;20028;-82
2023/07/19 06:44:37;;;;;;;8.30;2.80;;;14.90;91.90;;;;;;5007029;28;20034;-82
2023/07/19 06:47:04;;;;;;;10.18;2.67;;;14.90;92.50;;;;;;4999596;28;20061;-83
2023/07/19 06:49:30;;;;;;;7.93;2.20;;;15.00;93.30;;;;;;5013888;28;20367;-82
2023/07/19 06:51:55;;;;;;;18.42;3.80;;;14.90;92.80;;;;;;5011904;28;20099;-83
2023/07/19 06:54:21;;;;;;;13.18;3.25;;;14.90;93.10;;;;;;5008675;28;20040;-82
2023/07/19 06:56:46;;;;;;;7.05;2.20;;;14.90;93.10;;;;;;5002230;28;20030;-81
2023/07/19 06:59:13;;;;;;;8.30;1.77;;;14.90;93.00;;;;;;5012154;28;20041;-83
2023/07/19 07:01:39;;;;;;;12.00;2.70;;;14.90;92.60;;;;;;5010404;28;20363;-81
2023/07/19 07:04:08;;;;;;;5.30;2.00;;;15.00;92.80;;;;;;5010878;28;20041;-81
2023/07/19 07:06:34;;;;;;;3.92;1.85;;;15.10;92.70;;;;;;5012463;28;20034;-83
2023/07/19 07:09:00;;;;;;;3.70;1.90;;;15.20;92.80;;;;;;5008234;28;20030;-81
2023/07/19 07:11:25;;;;;;;4.03;1.67;;;15.20;91.90;;;;;;5007171;28;20026;-82
2023/07/19 07:13:51;;;;;;;6.68;1.77;;;15.10;91.60;;;;;;5011951;28;20113;-83
2023/07/19 07:16:16;;;;;;;4.88;1.75;;;15.10;92.20;;;;;;5009469;28;20030;-83
2023/07/19 07:18:42;;;;;;;6.65;1.85;;;15.20;92.40;;;;;;5013429;28;20022;-82
2023/07/19 07:21:07;;;;;;;4.80;2.00;;;15.20;92.40;;;;;;5010772;28;20409;-82
2023/07/19 07:23:33;;;;;;;4.82;2.10;;;15.20;91.90;;;;;;5010659;28;20080;-83
2023/07/19 07:25:58;;;;;;;5.07;1.90;;;15.20;92.60;;;;;;5012360;28;20041;-82
2023/07/19 07:28:24;;;;;;;5.15;2.13;;;15.30;92.90;;;;;;5016317;28;20120;-86
2023/07/19 07:30:49;;;;;;;3.72;1.70;;;15.40;92.70;;;;;;5022793;28;20030;-87
2023/07/19 07:33:16;;;;;;;3.55;1.95;;;15.50;92.00;;;;;;5024822;28;20077;-88
2023/07/19 07:35:42;;;;;;;3.72;2.10;;;15.80;92.50;;;;;;5019007;28;20056;-88
2023/07/19 07:38:08;;;;;;;3.60;1.77;;;15.90;91.70;;;;;;5029918;28;20057;-88
2023/07/19 07:40:33;;;;;;;5.22;1.98;;;15.80;89.90;;;;;;5025768;28;20026;-87
2023/07/19 07:42:59;;;;;;;3.00;1.70;;;16.00;90.30;;;;;;5030666;28;20054;-87
2023/07/19 07:45:25;;;;;;;3.60;1.40;;;16.10;89.80;;;;;;5031169;28;20095;-88
2023/07/19 07:47:50;;;;;;;5.95;1.48;;;16.30;89.10;;;;;;5030119;28;20045;-88
2023/07/19 07:50:17;;;;;;;4.63;1.55;;;16.70;88.80;;;;;;5029482;28;20029;-88
2023/07/19 07:52:43;;;;;;;4.70;1.40;;;16.90;89.00;;;;;;5025583;28;20036;-87
2023/07/19 07:55:08;;;;;;;3.83;1.83;;;16.80;86.70;;;;;;5006053;28;20038;-87
2023/07/19 07:57:34;;;;;;;3.72;1.40;;;17.00;86.50;;;;;;5026393;28;20135;-87
2023/07/19 08:00:03;;;;;;;4.40;1.40;;;16.90;86.70;;;;;;5025827;28;20549;-85
2023/07/19 08:02:28;;;;;;;2.30;1.25;;;17.00;85.10;;;;;;5020892;28;20021;-86
2023/07/19 08:04:54;;;;;;;5.95;1.40;;;16.80;85.50;;;;;;5025253;28;20056;-85
2023/07/19 08:07:20;;;;;;;3.65;1.40;;;16.50;85.80;;;;;;5018939;28;20102;-86
2023/07/19 08:09:45;;;;;;;1.77;1.20;;;16.50;85.00;;;;;;5016732;28;20040;-86
2023/07/19 08:12:13;;;;;;;2.45;1.30;;;16.70;86.70;;;;;;5022022;28;20046;-86
2023/07/19 08:14:40;;;;;;;5.68;1.55;;;17.00;86.20;;;;;;5018296;28;20041;-85
2023/07/19 08:17:05;;;;;;;3.30;1.25;;;17.00;87.60;;;;;;5015938;28;20525;-84
2023/07/19 08:19:31;;;;;;;4.70;1.33;;;17.10;85.60;;;;;;5009550;28;20129;-82
2023/07/19 08:22:02;;;;;;;3.95;1.25;;;17.60;86.20;;;;;;5002083;28;20026;-81
2023/07/19 08:24:27;;;;;;;;;;;17.90;85.00;;;;;;5006637;28;20022;-81
2023/07/19 08:26:53;;;;;;;3.05;1.38;;;17.80;82.20;;;;;;5005797;28;19910;-84
2023/07/19 08:29:18;;;;;;;2.60;1.40;;;18.00;82.70;;;;;;5007232;28;20497;-83
2023/07/19 08:31:44;;;;;;;3.50;1.30;;;18.10;83.40;;;;;;5003880;28;20076;-83
2023/07/19 08:34:09;;;;;;;6.47;1.52;;;18.20;81.10;;;;;;5012402;28;20073;-83
2023/07/19 08:36:35;;;;;;;5.35;1.40;;;18.70;83.60;;;;;;5003458;28;20045;-84
2023/07/19 08:39:00;;;;;;;3.40;1.40;;;18.60;81.50;;;;;;4998501;28;20037;-84
2023/07/19 08:41:29;;;;;;;4.05;1.33;;;18.70;80.70;;;;;;5006760;28;20113;-81
2023/07/19 08:43:55;;;;;;;5.05;1.50;;;18.70;80.70;;;;;;5005753;28;20037;-81
2023/07/19 08:46:22;;;;;;;5.00;1.40;;;18.40;80.20;;;;;;5003971;28;20029;-81
2023/07/19 08:48:48;;;;;;;2.38;1.20;;;18.70;80.50;;;;;;5006639;28;20048;-80
2023/07/19 08:51:15;;;;;;;3.63;1.20;;;19.40;82.00;;;;;;5009412;28;20433;-82
2023/07/19 08:53:41;;;;;;;3.17;1.67;;;19.70;77.90;;;;;;5012229;28;20061;-81
2023/07/19 08:56:07;;;;;;;3.40;1.10;;;19.50;77.80;;;;;;5013519;28;20064;-82
2023/07/19 08:58:36;;;;;;;3.13;1.48;;;19.60;79.70;;;;;;5012327;28;20045;-81
2023/07/19 09:01:02;;;;;;;3.38;1.10;;;19.70;77.90;;;;;;5010555;28;20405;-82
2023/07/19 09:03:28;;;;;;;2.33;1.15;;;19.20;76.90;;;;;;5013334;28;20030;-80
2023/07/19 09:05:54;;;;;;;2.60;1.05;;;19.50;76.10;;;;;;5009799;28;20489;-80
2023/07/19 09:08:20;;;;;;;3.95;1.30;;;19.30;77.90;;;;;;5011212;28;20482;-81
2023/07/19 09:10:46;;;;;;;3.08;1.50;;;19.60;75.00;;;;;;5009465;28;20026;-81
2023/07/19 09:13:18;;;;;;;2.58;1.20;;;19.80;76.50;;;;;;5017928;28;20029;-81
2023/07/19 09:15:47;;;;;;;5.78;1.60;;;20.00;77.00;;;;;;5008891;28;20481;-80
2023/07/19 09:18:13;;;;;;;2.85;1.15;;;19.60;77.30;;;;;;5009005;28;20029;-81
2023/07/19 09:20:39;;;;;;;3.10;1.50;;;19.70;77.60;;;;;;5009062;28;20030;-81
2023/07/19 09:23:06;;;;;;;3.47;1.48;;;19.70;77.30;;;;;;5010550;28;20421;-80
2023/07/19 09:25:33;;;;;;;5.03;1.77;;;20.00;75.10;;;;;;5007421;28;20474;-81
2023/07/19 09:28:06;;;;;;;3.50;1.45;;;20.00;74.80;;;;;;5010733;28;20037;-80
2023/07/19 09:30:32;;;;;;;3.13;1.70;;;20.50;75.70;;;;;;5010587;28;20057;-81
2023/07/19 09:32:59;;;;;;;3.72;1.67;;;20.70;76.30;;;;;;5008377;28;20025;-80
2023/07/19 09:35:28;;;;;;;5.00;1.80;;;21.10;73.50;;;;;;5006046;28;20104;-80
2023/07/19 09:37:55;;;;;;;5.60;2.10;;;20.90;71.80;;;;;;5011908;28;20029;-81
2023/07/19 09:40:21;;;;;;;5.60;1.73;;;21.00;72.70;;;;;;5012092;28;20100;-81
2023/07/19 09:42:51;;;;;;;4.65;1.73;;;21.00;70.90;;;;;;5009679;28;20026;-81
2023/07/19 09:45:18;;;;;;;3.80;1.50;;;21.10;73.60;;;;;;5011131;28;20037;-82
2023/07/19 09:47:44;;;;;;;6.80;2.00;;;21.40;70.90;;;;;;5009508;28;20029;-81
2023/07/19 09:50:10;;;;;;;3.80;1.77;;;21.50;71.40;;;;;;5012067;28;20481;-81
2023/07/19 09:52:40;;;;;;;6.10;1.90;;;22.00;71.40;;;;;;5012000;28;20032;-81
2023/07/19 09:55:07;;;;;;;5.43;1.80;;;21.60;71.20;;;;;;5014241;28;20104;-81
2023/07/19 09:57:35;;;;;;;4.93;1.70;;;21.90;69.20;;;;;;5010544;28;20410;-81
2023/07/19 10:00:03;;;;;;;7.28;2.13;;;21.50;69.50;;;;;;5010460;28;20033;-83
2023/07/19 10:02:29;;;;;;;4.78;2.00;;;21.60;70.40;;;;;;5010640;28;20478;-80
2023/07/19 10:04:54;;;;;;;4.18;2.25;;;21.80;70.40;;;;;;5012395;28;20026;-80
2023/07/19 10:07:24;;;;;;;4.20;1.85;;;21.50;69.70;;;;;;5004632;28;20128;-81
2023/07/19 10:10:00;;;;;;;3.97;2.03;;;21.30;70.30;;;;;;5010542;28;20481;-81
2023/07/19 10:12:26;;;;;;;4.75;1.92;;;21.50;71.40;;;;;;5006599;28;20030;-81
2023/07/19 10:14:56;;;;;;;4.40;1.70;;;21.90;71.50;;;;;;5010003;28;20030;-80
2023/07/19 10:17:22;;;;;;;8.38;2.50;;;22.30;68.80;;;;;;5008375;28;20141;-81
2023/07/19 10:20:14;;;;;;;6.65;2.28;;;22.90;63.30;;;;;;5011352;28;20164;-81
2023/07/19 10:22:53;;;;;;;5.75;1.83;;;22.90;63.50;;;;;;5006854;28;20088;-81
2023/07/19 10:25:27;;;;;;;4.40;2.13;;;22.90;65.80;;;;;;5008414;28;20091;-81
2023/07/19 10:27:57;;;;;;;4.80;2.20;;;22.50;64.70;;;;;;5010912;28;20109;-80
2023/07/19 10:30:45;;;;;;;3.20;2.00;;;22.60;66.80;;;;;;5010146;28;20037;-81
2023/07/19 10:33:11;;;;;;;3.67;1.90;;;22.60;65.40;;;;;;5008083;28;20405;-81
2023/07/19 10:35:36;;;;;;;5.72;1.98;;;22.10;64.60;;;;;;4993387;28;20036;-81
2023/07/19 10:38:02;;;;;;;4.07;2.20;;;21.50;65.50;;;;;;5010237;28;20133;-81
2023/07/19 10:40:28;;;;;;;4.35;2.13;;;21.20;67.50;;;;;;5008065;28;20496;-80
2023/07/19 10:42:54;;;;;;;5.80;2.58;;;21.00;68.10;;;;;;5009193;28;20022;-80
2023/07/19 10:45:20;;;;;;;4.90;1.90;;;21.00;69.50;;;;;;5003951;28;20022;-80
2023/07/19 10:47:45;;;;;;;5.03;2.10;;;20.80;69.40;;;;;;5019479;28;20034;-80
2023/07/19 10:50:11;;;;;;;6.40;1.92;;;20.90;69.80;;;;;;5018913;28;20393;-80
2023/07/19 10:52:37;;;;;;;4.30;1.67;;;20.80;69.60;;;;;;5009091;28;20213;-80
2023/07/19 10:55:02;;;;;;;6.90;1.92;;;20.60;69.70;;;;;;5016082;28;20030;-80
2023/07/19 10:57:30;;;;;;;6.88;2.45;;;20.40;71.00;;;;;;5015698;28;20512;-80
2023/07/19 10:59:55;;;;;;;4.03;1.90;;;20.40;70.60;;;;;;5008568;28;20488;-81
2023/07/19 11:02:21;;;;;;;6.20;2.35;;;20.50;72.40;;;;;;5009980;28;20229;-81
2023/07/19 11:04:48;;;;;;;5.90;2.45;;;20.70;71.80;;;;;;5014734;28;20477;-80
2023/07/19 11:07:13;;;;;;;4.40;2.05;;;20.60;70.90;;;;;;5013105;28;20030;-81
2023/07/19 11:09:48;;;;;;;5.35;1.77;;;20.60;72.10;;;;;;5014311;28;20045;-81
2023/07/19 11:12:13;;;;;;;4.90;2.05;;;20.90;71.40;;;;;;5011908;28;20076;-81
2023/07/19 11:14:42;;;;;;;6.78;2.10;;;21.00;70.70;;;;;;5014934;28;20112;-80
2023/07/19 11:17:08;;;;;;;6.18;2.53;;;21.10;68.70;;;;;;5009288;28;20037;-81
2023/07/19 11:19:36;;;;;;;4.82;2.03;;;21.30;70.20;;;;;;5013476;28;20045;-81
2023/07/19 11:22:06;;;;;;;5.60;2.28;;;21.70;68.70;;;;;;5010410;28;20097;-82
2023/07/19 11:24:40;;;;;;;5.55;2.15;;;21.70;67.40;;;;;;5017152;28;20175;-80
2023/07/19 11:27:08;;;;;;;4.72;1.90;;;21.30;68.30;;;;;;5019362;28;20038;-80
2023/07/19 11:29:34;;;;;;;6.00;2.05;;;21.50;69.10;;;;;;5022418;28;20030;-81
2023/07/19 11:32:20;;;;;;;4.75;2.05;;;21.40;69.40;;;;;;5013325;28;20033;-80
2023/07/19 11:34:54;;;;;;;5.80;2.60;;;21.50;69.10;;;;;;5020327;28;20584;-81
2023/07/19 11:37:23;;;;;;;6.45;2.28;;;21.10;69.10;;;;;;5005339;28;20026;-82
2023/07/19 11:39:50;;;;;;;7.28;2.33;;;21.00;70.10;;;;;;5013113;28;20074;-81
2023/07/19 11:42:44;;;;;;;6.80;2.42;;;20.80;70.50;;;;;;5013694;28;20026;-80
2023/07/19 11:45:18;;;;;;;5.78;2.70;;;20.50;71.70;;;;;;5009393;28;20473;-81
2023/07/19 11:47:48;;;;;;;7.00;2.60;;;21.00;72.60;;;;;;5009891;28;20072;-81
2023/07/19 11:50:14;;;;;;;7.38;2.92;;;21.10;71.90;;;;;;5011244;28;20548;-82
2023/07/19 11:52:57;;;;;;;6.68;2.75;;;21.10;70.20;;;;;;5011026;28;20038;-81
2023/07/19 11:55:24;;;;;;;4.70;2.80;;;21.00;71.10;;;;;;5022219;28;20051;-81
2023/07/19 11:57:51;;;;;;;4.47;2.15;;;21.00;71.00;;;;;;5014344;28;20050;-82
2023/07/19 12:00:22;;;;;;;4.43;2.28;;;21.00;70.30;;;;;;5016986;28;20033;-82
2023/07/19 12:02:50;;;;;;;8.93;1.77;;;21.30;69.20;;;;;;5017094;28;20025;-81
2023/07/19 12:05:21;;;;;;;6.63;2.00;;;21.70;67.20;;;;;;5009780;28;20386;-81
2023/07/19 12:07:47;;;;;;;;;;;22.00;67.00;;;;;;5012161;28;20037;-80
2023/07/19 12:10:13;;;;;;;6.18;2.10;;;22.00;66.60;;;;;;5009559;28;19909;-80
2023/07/19 12:12:38;;;;;;;5.97;1.45;;;21.80;65.90;;;;;;5010358;28;20030;-80
2023/07/19 12:15:07;;;;;;;4.70;1.63;;;21.60;65.80;;;;;;5013197;28;20025;-81
2023/07/19 12:17:34;;;;;;;5.75;1.67;;;21.30;67.40;;;;;;5008546;28;20192;-82
2023/07/19 12:20:00;;;;;;;5.03;1.60;;;21.20;67.60;;;;;;5018910;28;20481;-80
2023/07/19 12:22:29;;;;;;;3.90;1.50;;;21.30;68.20;;;;;;5007909;28;20092;-81
2023/07/19 12:24:55;;;;;;;5.18;1.60;;;21.20;68.60;;;;;;5025089;28;20105;-81
2023/07/19 12:27:21;;;;;;;3.63;1.45;;;21.20;67.90;;;;;;5007286;28;20112;-81
2023/07/19 12:29:46;;;;;;;5.30;1.55;;;21.40;68.30;;;;;;5012068;28;20030;-80
2023/07/19 12:32:12;;;;;;;4.47;1.65;;;21.90;67.80;;;;;;5015671;28;20057;-81
2023/07/19 12:34:37;;;;;;;4.25;1.70;;;21.80;66.40;;;;;;5009670;28;20501;-81
2023/07/19 12:37:03;;;;;;;6.72;1.45;;;21.80;67.00;;;;;;5002307;28;20121;-83
2023/07/19 12:39:29;;;;;;;4.03;1.42;;;21.70;67.50;;;;;;5011055;28;20096;-82
2023/07/19 12:41:55;;;;;;;4.32;1.50;;;21.70;68.10;;;;;;5012791;28;20102;-80
2023/07/19 12:44:21;;;;;;;4.32;1.58;;;21.70;67.70;;;;;;5005920;28;20038;-81